Terminal Aerodrome Forecast
Issued by NWS Mt. Holly, NJ

Home | Current Version | Previous Version | Text Only | Print | Product List | Glossary On
Versions: 1 2 3 4 5 6 7 8 9 10 11 12 13 14 15 16 17 18 19
000
FTUS41 KPHI 240300 AAC
TAFABE
TAF AMD
KABE 240358Z 2404/2424 30005KT 6SM BR BKN050
      TEMPO 2404/2406 3SM BR
     FM240600 32005KT 5SM BR FEW030 BKN100
     FM241300 35008KT P6SM SCT050 BKN200=

USA.gov is the U.S. government's official web portal to all federal, state and local government web resources and services.